Khassab, Oman
Current Conditions -  °F | °C
As of 4:00 PM on Sunday 21 Dec 2014 (Local Time) from OIKQ Reporting Station
Sand / Dust Storm Sand / Dust Storm  
Wind Chill: 73°   Ceiling: Unl
Heat Index: 73°   Visibility: 2.5mi
Dew Point: 59°   Wind: 22mph
Humidity: 61%   Direction: 240°WSW
Pressure: 29.91"   Gusts: NA
Location:  26.22°N, 56.23°E
Report Text: OIKQ 211200Z 24019KT 4000 SA FEW030 23/15 Q1013
Loading
Personal Weather Stations






























Interactive Weather Map New forecast layout! Learn more

10-Day Weather Forecast

Advertisements
Track Severe Weather on mobile